sensor_id;sensor_type;location;lat;lon;timestamp;P1;durP1;ratioP1;P2;durP2;ratioP2
52934;SDS011;38802;50.198;19.796;2024-02-16T00:00:14;38.80;;;25.80;;
52934;SDS011;38802;50.198;19.796;2024-02-16T00:03:04;42.00;;;23.60;;
52934;SDS011;38802;50.198;19.796;2024-02-16T00:05:32;38.40;;;25.50;;
52934;SDS011;38802;50.198;19.796;2024-02-16T00:08:00;38.40;;;24.90;;
52934;SDS011;38802;50.198;19.796;2024-02-16T00:10:30;44.70;;;25.20;;
52934;SDS011;38802;50.198;19.796;2024-02-16T00:12:58;46.60;;;25.40;;
52934;SDS011;38802;50.198;19.796;2024-02-16T00:15:26;42.40;;;26.30;;
52934;SDS011;38802;50.198;19.796;2024-02-16T00:17:54;40.70;;;24.90;;
52934;SDS011;38802;50.198;19.796;2024-02-16T00:20:23;43.10;;;25.00;;
52934;SDS011;38802;50.198;19.796;2024-02-16T00:22:51;44.20;;;27.00;;
52934;SDS011;38802;50.198;19.796;2024-02-16T00:25:20;47.60;;;25.80;;
52934;SDS011;38802;50.198;19.796;2024-02-16T00:27:48;40.40;;;23.70;;
52934;SDS011;38802;50.198;19.796;2024-02-16T00:30:16;40.10;;;24.30;;
52934;SDS011;38802;50.198;19.796;2024-02-16T00:32:45;43.00;;;22.60;;
52934;SDS011;38802;50.198;19.796;2024-02-16T00:35:17;42.20;;;22.10;;
52934;SDS011;38802;50.198;19.796;2024-02-16T00:37:45;33.50;;;20.70;;
52934;SDS011;38802;50.198;19.796;2024-02-16T00:40:13;29.00;;;19.50;;
52934;SDS011;38802;50.198;19.796;2024-02-16T00:42:42;30.80;;;19.50;;
52934;SDS011;38802;50.198;19.796;2024-02-16T00:45:10;28.00;;;17.30;;
52934;SDS011;38802;50.198;19.796;2024-02-16T00:47:38;27.60;;;16.80;;
52934;SDS011;38802;50.198;19.796;2024-02-16T00:50:07;22.50;;;15.00;;
52934;SDS011;38802;50.198;19.796;2024-02-16T00:52:36;24.30;;;15.10;;
52934;SDS011;38802;50.198;19.796;2024-02-16T00:55:06;18.50;;;13.70;;
52934;SDS011;38802;50.198;19.796;2024-02-16T00:57:34;22.40;;;13.60;;
52934;SDS011;38802;50.198;19.796;2024-02-16T01:00:02;18.80;;;13.20;;
52934;SDS011;38802;50.198;19.796;2024-02-16T01:02:31;22.00;;;14.20;;
52934;SDS011;38802;50.198;19.796;2024-02-16T01:04:59;20.50;;;13.60;;
52934;SDS011;38802;50.198;19.796;2024-02-16T01:07:30;17.50;;;12.90;;
52934;SDS011;38802;50.198;19.796;2024-02-16T01:10:00;21.00;;;15.70;;
52934;SDS011;38802;50.198;19.796;2024-02-16T01:12:31;21.80;;;14.20;;
52934;SDS011;38802;50.198;19.796;2024-02-16T01:14:59;20.00;;;15.80;;
52934;SDS011;38802;50.198;19.796;2024-02-16T01:17:27;24.10;;;13.90;;
52934;SDS011;38802;50.198;19.796;2024-02-16T01:19:57;20.60;;;14.20;;
52934;SDS011;38802;50.198;19.796;2024-02-16T01:22:25;22.90;;;14.40;;
52934;SDS011;38802;50.198;19.796;2024-02-16T01:24:54;20.50;;;13.40;;
52934;SDS011;38802;50.198;19.796;2024-02-16T01:27:22;23.60;;;14.80;;
52934;SDS011;38802;50.198;19.796;2024-02-16T01:29:50;17.60;;;13.60;;
52934;SDS011;38802;50.198;19.796;2024-02-16T01:32:18;18.50;;;14.00;;
52934;SDS011;38802;50.198;19.796;2024-02-16T01:34:46;20.60;;;13.00;;
52934;SDS011;38802;50.198;19.796;2024-02-16T01:37:17;17.10;;;12.90;;
52934;SDS011;38802;50.198;19.796;2024-02-16T01:39:45;17.40;;;13.00;;
52934;SDS011;38802;50.198;19.796;2024-02-16T01:42:13;22.80;;;14.60;;
52934;SDS011;38802;50.198;19.796;2024-02-16T01:44:41;20.00;;;13.30;;
52934;SDS011;38802;50.198;19.796;2024-02-16T01:47:10;20.60;;;13.40;;
52934;SDS011;38802;50.198;19.796;2024-02-16T01:49:38;23.80;;;14.70;;
52934;SDS011;38802;50.198;19.796;2024-02-16T01:52:07;21.70;;;15.30;;
52934;SDS011;38802;50.198;19.796;2024-02-16T01:54:35;21.70;;;14.00;;
52934;SDS011;38802;50.198;19.796;2024-02-16T01:57:05;16.90;;;12.90;;
52934;SDS011;38802;50.198;19.796;2024-02-16T01:59:34;14.70;;;12.00;;
52934;SDS011;38802;50.198;19.796;2024-02-16T02:02:04;19.60;;;12.80;;
52934;SDS011;38802;50.198;19.796;2024-02-16T02:04:33;15.40;;;12.00;;
52934;SDS011;38802;50.198;19.796;2024-02-16T02:07:10;17.30;;;12.50;;
52934;SDS011;38802;50.198;19.796;2024-02-16T02:09:42;20.10;;;13.40;;
52934;SDS011;38802;50.198;19.796;2024-02-16T02:12:10;18.10;;;13.60;;
52934;SDS011;38802;50.198;19.796;2024-02-16T02:14:42;21.90;;;13.40;;
52934;SDS011;38802;50.198;19.796;2024-02-16T02:17:14;20.60;;;13.70;;
52934;SDS011;38802;50.198;19.796;2024-02-16T02:19:52;14.20;;;10.80;;
52934;SDS011;38802;50.198;19.796;2024-02-16T02:22:20;14.20;;;10.50;;
52934;SDS011;38802;50.198;19.796;2024-02-16T02:24:48;11.90;;;8.30;;
52934;SDS011;38802;50.198;19.796;2024-02-16T02:27:16;9.30;;;7.90;;
52934;SDS011;38802;50.198;19.796;2024-02-16T02:29:44;11.40;;;10.00;;
52934;SDS011;38802;50.198;19.796;2024-02-16T02:32:13;9.90;;;8.20;;
52934;SDS011;38802;50.198;19.796;2024-02-16T02:34:41;12.70;;;7.80;;
52934;SDS011;38802;50.198;19.796;2024-02-16T02:37:09;10.30;;;8.20;;
52934;SDS011;38802;50.198;19.796;2024-02-16T02:39:37;9.70;;;7.90;;
52934;SDS011;38802;50.198;19.796;2024-02-16T02:42:05;8.80;;;7.80;;
52934;SDS011;38802;50.198;19.796;2024-02-16T02:44:34;9.40;;;8.50;;
52934;SDS011;38802;50.198;19.796;2024-02-16T02:47:02;10.20;;;8.50;;
52934;SDS011;38802;50.198;19.796;2024-02-16T02:49:31;8.80;;;7.90;;
52934;SDS011;38802;50.198;19.796;2024-02-16T02:52:01;10.10;;;8.60;;
52934;SDS011;38802;50.198;19.796;2024-02-16T02:54:30;12.20;;;9.40;;
52934;SDS011;38802;50.198;19.796;2024-02-16T02:56:58;8.90;;;8.00;;
52934;SDS011;38802;50.198;19.796;2024-02-16T02:59:26;9.60;;;8.50;;
52934;SDS011;38802;50.198;19.796;2024-02-16T03:01:54;9.50;;;8.50;;
52934;SDS011;38802;50.198;19.796;2024-02-16T03:04:22;12.00;;;8.00;;
52934;SDS011;38802;50.198;19.796;2024-02-16T03:06:53;11.40;;;9.40;;
52934;SDS011;38802;50.198;19.796;2024-02-16T03:09:21;13.80;;;9.70;;
52934;SDS011;38802;50.198;19.796;2024-02-16T03:11:50;16.00;;;11.20;;
52934;SDS011;38802;50.198;19.796;2024-02-16T03:14:18;15.80;;;11.10;;
52934;SDS011;38802;50.198;19.796;2024-02-16T03:16:46;18.80;;;11.70;;
52934;SDS011;38802;50.198;19.796;2024-02-16T03:19:15;18.20;;;11.50;;
52934;SDS011;38802;50.198;19.796;2024-02-16T03:21:43;13.10;;;10.10;;
52934;SDS011;38802;50.198;19.796;2024-02-16T03:24:11;15.20;;;12.40;;
52934;SDS011;38802;50.198;19.796;2024-02-16T03:26:39;22.00;;;14.70;;
52934;SDS011;38802;50.198;19.796;2024-02-16T03:29:07;18.60;;;13.60;;
52934;SDS011;38802;50.198;19.796;2024-02-16T03:31:35;20.60;;;14.60;;
52934;SDS011;38802;50.198;19.796;2024-02-16T03:34:04;21.00;;;14.60;;
52934;SDS011;38802;50.198;19.796;2024-02-16T03:36:32;22.60;;;15.00;;
52934;SDS011;38802;50.198;19.796;2024-02-16T03:39:00;22.70;;;17.10;;
52934;SDS011;38802;50.198;19.796;2024-02-16T03:41:28;21.20;;;15.50;;
52934;SDS011;38802;50.198;19.796;2024-02-16T03:43:56;28.20;;;16.40;;
52934;SDS011;38802;50.198;19.796;2024-02-16T03:46:26;20.90;;;16.30;;
52934;SDS011;38802;50.198;19.796;2024-02-16T03:48:55;24.00;;;16.40;;
52934;SDS011;38802;50.198;19.796;2024-02-16T03:51:23;21.40;;;16.50;;
52934;SDS011;38802;50.198;19.796;2024-02-16T03:53:51;22.10;;;15.90;;
52934;SDS011;38802;50.198;19.796;2024-02-16T03:56:19;18.90;;;13.90;;
52934;SDS011;38802;50.198;19.796;2024-02-16T03:58:49;19.70;;;14.10;;
52934;SDS011;38802;50.198;19.796;2024-02-16T04:01:17;21.70;;;15.00;;
52934;SDS011;38802;50.198;19.796;2024-02-16T04:03:45;16.40;;;13.60;;
52934;SDS011;38802;50.198;19.796;2024-02-16T04:06:13;21.20;;;14.70;;
52934;SDS011;38802;50.198;19.796;2024-02-16T04:08:41;18.80;;;14.40;;
52934;SDS011;38802;50.198;19.796;2024-02-16T04:11:11;22.30;;;14.00;;
52934;SDS011;38802;50.198;19.796;2024-02-16T04:13:40;25.50;;;14.50;;
52934;SDS011;38802;50.198;19.796;2024-02-16T04:16:08;18.90;;;13.30;;
52934;SDS011;38802;50.198;19.796;2024-02-16T04:18:37;18.60;;;12.70;;
52934;SDS011;38802;50.198;19.796;2024-02-16T04:21:05;16.60;;;12.50;;
52934;SDS011;38802;50.198;19.796;2024-02-16T04:23:33;18.60;;;12.40;;
52934;SDS011;38802;50.198;19.796;2024-02-16T04:26:01;15.80;;;12.50;;
52934;SDS011;38802;50.198;19.796;2024-02-16T04:28:29;15.60;;;11.50;;
52934;SDS011;38802;50.198;19.796;2024-02-16T04:30:57;17.00;;;12.70;;
52934;SDS011;38802;50.198;19.796;2024-02-16T04:33:25;14.40;;;12.70;;
52934;SDS011;38802;50.198;19.796;2024-02-16T04:35:54;17.70;;;12.80;;
52934;SDS011;38802;50.198;19.796;2024-02-16T04:38:22;16.40;;;13.70;;
52934;SDS011;38802;50.198;19.796;2024-02-16T04:40:49;19.30;;;14.10;;
52934;SDS011;38802;50.198;19.796;2024-02-16T04:43:17;21.00;;;15.80;;
52934;SDS011;38802;50.198;19.796;2024-02-16T04:45:45;20.60;;;15.50;;
52934;SDS011;38802;50.198;19.796;2024-02-16T04:48:13;17.40;;;13.30;;
52934;SDS011;38802;50.198;19.796;2024-02-16T04:50:42;16.90;;;12.60;;
52934;SDS011;38802;50.198;19.796;2024-02-16T04:53:10;13.90;;;12.40;;
52934;SDS011;38802;50.198;19.796;2024-02-16T04:55:38;17.80;;;11.90;;
52934;SDS011;38802;50.198;19.796;2024-02-16T04:58:06;16.80;;;11.40;;
52934;SDS011;38802;50.198;19.796;2024-02-16T05:00:37;13.10;;;11.50;;
52934;SDS011;38802;50.198;19.796;2024-02-16T05:03:06;13.80;;;11.10;;
52934;SDS011;38802;50.198;19.796;2024-02-16T05:05:34;15.50;;;10.60;;
52934;SDS011;38802;50.198;19.796;2024-02-16T05:08:02;13.00;;;9.80;;
52934;SDS011;38802;50.198;19.796;2024-02-16T05:10:30;12.30;;;10.70;;
52934;SDS011;38802;50.198;19.796;2024-02-16T05:12:59;12.60;;;11.00;;
52934;SDS011;38802;50.198;19.796;2024-02-16T05:15:27;11.60;;;10.50;;
52934;SDS011;38802;50.198;19.796;2024-02-16T05:17:55;17.80;;;12.90;;
52934;SDS011;38802;50.198;19.796;2024-02-16T05:20:24;25.50;;;15.20;;
52934;SDS011;38802;50.198;19.796;2024-02-16T05:22:52;24.80;;;16.90;;
52934;SDS011;38802;50.198;19.796;2024-02-16T05:25:20;27.40;;;17.40;;
52934;SDS011;38802;50.198;19.796;2024-02-16T05:27:48;27.30;;;17.90;;
52934;SDS011;38802;50.198;19.796;2024-02-16T05:30:16;22.90;;;14.90;;
52934;SDS011;38802;50.198;19.796;2024-02-16T05:32:45;15.00;;;11.90;;
52934;SDS011;38802;50.198;19.796;2024-02-16T05:35:13;21.00;;;13.30;;
52934;SDS011;38802;50.198;19.796;2024-02-16T05:37:45;14.20;;;10.70;;
52934;SDS011;38802;50.198;19.796;2024-02-16T05:40:19;12.30;;;9.60;;
52934;SDS011;38802;50.198;19.796;2024-02-16T05:42:51;13.20;;;10.40;;
52934;SDS011;38802;50.198;19.796;2024-02-16T05:45:20;12.80;;;9.50;;
52934;SDS011;38802;50.198;19.796;2024-02-16T05:47:51;12.50;;;9.50;;
52934;SDS011;38802;50.198;19.796;2024-02-16T05:50:21;14.10;;;10.60;;
52934;SDS011;38802;50.198;19.796;2024-02-16T05:52:50;12.20;;;9.70;;
52934;SDS011;38802;50.198;19.796;2024-02-16T05:55:18;9.40;;;8.50;;
52934;SDS011;38802;50.198;19.796;2024-02-16T05:57:47;10.50;;;8.40;;
52934;SDS011;38802;50.198;19.796;2024-02-16T06:00:15;7.90;;;7.20;;
52934;SDS011;38802;50.198;19.796;2024-02-16T06:02:44;7.20;;;6.40;;
52934;SDS011;38802;50.198;19.796;2024-02-16T06:05:12;7.50;;;6.80;;
52934;SDS011;38802;50.198;19.796;2024-02-16T06:07:40;8.40;;;6.80;;
52934;SDS011;38802;50.198;19.796;2024-02-16T06:10:09;8.90;;;7.10;;
52934;SDS011;38802;50.198;19.796;2024-02-16T06:12:39;7.40;;;6.20;;
52934;SDS011;38802;50.198;19.796;2024-02-16T06:15:08;6.90;;;5.80;;
52934;SDS011;38802;50.198;19.796;2024-02-16T06:17:37;7.30;;;5.90;;
52934;SDS011;38802;50.198;19.796;2024-02-16T06:20:05;6.90;;;6.00;;
52934;SDS011;38802;50.198;19.796;2024-02-16T06:22:37;6.90;;;6.20;;
52934;SDS011;38802;50.198;19.796;2024-02-16T06:25:05;5.70;;;5.20;;
52934;SDS011;38802;50.198;19.796;2024-02-16T06:27:33;8.80;;;5.00;;
52934;SDS011;38802;50.198;19.796;2024-02-16T06:30:02;6.00;;;5.40;;
52934;SDS011;38802;50.198;19.796;2024-02-16T06:32:35;6.60;;;5.50;;
52934;SDS011;38802;50.198;19.796;2024-02-16T06:35:03;7.90;;;6.50;;
52934;SDS011;38802;50.198;19.796;2024-02-16T06:37:31;7.80;;;6.60;;
52934;SDS011;38802;50.198;19.796;2024-02-16T06:39:59;7.80;;;7.10;;
52934;SDS011;38802;50.198;19.796;2024-02-16T06:42:28;7.40;;;6.50;;
52934;SDS011;38802;50.198;19.796;2024-02-16T06:44:57;7.60;;;6.90;;
52934;SDS011;38802;50.198;19.796;2024-02-16T06:47:25;8.70;;;8.00;;
52934;SDS011;38802;50.198;19.796;2024-02-16T06:49:54;9.10;;;6.50;;
52934;SDS011;38802;50.198;19.796;2024-02-16T06:52:22;7.10;;;6.40;;
52934;SDS011;38802;50.198;19.796;2024-02-16T06:54:51;10.00;;;7.30;;
52934;SDS011;38802;50.198;19.796;2024-02-16T06:57:19;7.70;;;6.40;;
52934;SDS011;38802;50.198;19.796;2024-02-16T06:59:48;9.50;;;8.10;;
52934;SDS011;38802;50.198;19.796;2024-02-16T07:02:16;9.40;;;8.50;;
52934;SDS011;38802;50.198;19.796;2024-02-16T07:04:45;10.20;;;7.80;;
52934;SDS011;38802;50.198;19.796;2024-02-16T07:07:13;9.70;;;7.80;;
52934;SDS011;38802;50.198;19.796;2024-02-16T07:09:42;10.40;;;8.10;;
52934;SDS011;38802;50.198;19.796;2024-02-16T07:12:10;9.00;;;8.10;;
52934;SDS011;38802;50.198;19.796;2024-02-16T07:14:40;10.50;;;8.70;;
52934;SDS011;38802;50.198;19.796;2024-02-16T07:17:08;9.70;;;8.70;;
52934;SDS011;38802;50.198;19.796;2024-02-16T07:19:38;10.60;;;8.40;;
52934;SDS011;38802;50.198;19.796;2024-02-16T07:22:06;10.50;;;9.40;;
52934;SDS011;38802;50.198;19.796;2024-02-16T07:24:34;12.50;;;8.90;;
52934;SDS011;38802;50.198;19.796;2024-02-16T07:27:02;12.40;;;9.40;;
52934;SDS011;38802;50.198;19.796;2024-02-16T07:29:31;11.00;;;9.00;;
52934;SDS011;38802;50.198;19.796;2024-02-16T07:31:59;10.40;;;9.00;;
52934;SDS011;38802;50.198;19.796;2024-02-16T07:34:27;10.60;;;9.50;;
52934;SDS011;38802;50.198;19.796;2024-02-16T07:36:56;8.80;;;7.90;;
52934;SDS011;38802;50.198;19.796;2024-02-16T07:39:25;10.30;;;8.80;;
52934;SDS011;38802;50.198;19.796;2024-02-16T07:41:53;16.50;;;8.50;;
52934;SDS011;38802;50.198;19.796;2024-02-16T07:44:21;8.60;;;7.60;;
52934;SDS011;38802;50.198;19.796;2024-02-16T07:46:49;10.90;;;8.20;;
52934;SDS011;38802;50.198;19.796;2024-02-16T07:49:18;7.50;;;6.60;;
52934;SDS011;38802;50.198;19.796;2024-02-16T07:51:47;6.60;;;6.00;;
52934;SDS011;38802;50.198;19.796;2024-02-16T07:54:15;7.90;;;7.10;;
52934;SDS011;38802;50.198;19.796;2024-02-16T07:56:44;7.60;;;6.80;;
52934;SDS011;38802;50.198;19.796;2024-02-16T07:59:12;8.30;;;6.50;;
52934;SDS011;38802;50.198;19.796;2024-02-16T08:01:40;8.60;;;7.70;;
52934;SDS011;38802;50.198;19.796;2024-02-16T08:04:12;11.90;;;7.80;;
52934;SDS011;38802;50.198;19.796;2024-02-16T08:06:40;6.40;;;5.80;;
52934;SDS011;38802;50.198;19.796;2024-02-16T08:09:08;6.80;;;6.20;;
52934;SDS011;38802;50.198;19.796;2024-02-16T08:11:36;7.40;;;6.30;;
52934;SDS011;38802;50.198;19.796;2024-02-16T08:14:05;8.00;;;5.60;;
52934;SDS011;38802;50.198;19.796;2024-02-16T08:16:33;10.50;;;5.70;;
52934;SDS011;38802;50.198;19.796;2024-02-16T08:19:01;5.50;;;5.00;;
52934;SDS011;38802;50.198;19.796;2024-02-16T08:21:30;5.90;;;4.70;;
52934;SDS011;38802;50.198;19.796;2024-02-16T08:23:58;6.30;;;5.60;;
52934;SDS011;38802;50.198;19.796;2024-02-16T08:26:26;7.80;;;5.70;;
52934;SDS011;38802;50.198;19.796;2024-02-16T08:28:54;7.00;;;6.00;;
52934;SDS011;38802;50.198;19.796;2024-02-16T08:31:22;7.00;;;6.30;;
52934;SDS011;38802;50.198;19.796;2024-02-16T08:33:50;7.70;;;5.60;;
52934;SDS011;38802;50.198;19.796;2024-02-16T08:36:19;7.50;;;6.00;;
52934;SDS011;38802;50.198;19.796;2024-02-16T08:38:49;5.40;;;4.90;;
52934;SDS011;38802;50.198;19.796;2024-02-16T08:41:17;6.50;;;5.50;;
52934;SDS011;38802;50.198;19.796;2024-02-16T08:43:46;5.50;;;5.00;;
52934;SDS011;38802;50.198;19.796;2024-02-16T08:46:14;6.80;;;5.20;;
52934;SDS011;38802;50.198;19.796;2024-02-16T08:48:46;5.20;;;4.60;;
52934;SDS011;38802;50.198;19.796;2024-02-16T08:51:15;6.70;;;5.60;;
52934;SDS011;38802;50.198;19.796;2024-02-16T08:53:44;7.60;;;6.10;;
52934;SDS011;38802;50.198;19.796;2024-02-16T08:56:12;5.60;;;4.20;;
52934;SDS011;38802;50.198;19.796;2024-02-16T08:58:40;5.10;;;4.70;;
52934;SDS011;38802;50.198;19.796;2024-02-16T09:01:08;3.90;;;3.30;;
52934;SDS011;38802;50.198;19.796;2024-02-16T09:03:36;3.60;;;3.20;;
52934;SDS011;38802;50.198;19.796;2024-02-16T09:06:07;5.80;;;4.50;;
52934;SDS011;38802;50.198;19.796;2024-02-16T09:08:35;8.20;;;5.40;;
52934;SDS011;38802;50.198;19.796;2024-02-16T09:11:03;8.60;;;7.80;;
52934;SDS011;38802;50.198;19.796;2024-02-16T09:13:35;8.10;;;6.80;;
52934;SDS011;38802;50.198;19.796;2024-02-16T09:16:08;12.90;;;8.00;;
52934;SDS011;38802;50.198;19.796;2024-02-16T09:18:36;7.90;;;6.60;;
52934;SDS011;38802;50.198;19.796;2024-02-16T09:21:06;6.80;;;6.20;;
52934;SDS011;38802;50.198;19.796;2024-02-16T09:23:35;7.70;;;7.00;;
52934;SDS011;38802;50.198;19.796;2024-02-16T09:26:04;6.60;;;6.00;;
52934;SDS011;38802;50.198;19.796;2024-02-16T09:28:32;3.80;;;3.50;;
52934;SDS011;38802;50.198;19.796;2024-02-16T09:31:00;4.50;;;4.10;;
52934;SDS011;38802;50.198;19.796;2024-02-16T09:33:28;9.00;;;4.90;;
52934;SDS011;38802;50.198;19.796;2024-02-16T09:35:56;4.70;;;4.20;;
52934;SDS011;38802;50.198;19.796;2024-02-16T09:38:24;6.10;;;4.30;;
52934;SDS011;38802;50.198;19.796;2024-02-16T09:40:52;5.10;;;4.10;;
52934;SDS011;38802;50.198;19.796;2024-02-16T09:43:23;4.50;;;3.90;;
52934;SDS011;38802;50.198;19.796;2024-02-16T09:45:56;5.90;;;5.30;;
52934;SDS011;38802;50.198;19.796;2024-02-16T09:48:26;9.20;;;6.60;;
52934;SDS011;38802;50.198;19.796;2024-02-16T09:50:56;6.60;;;5.20;;
52934;SDS011;38802;50.198;19.796;2024-02-16T09:53:28;4.90;;;4.40;;
52934;SDS011;38802;50.198;19.796;2024-02-16T09:55:57;7.80;;;5.60;;
52934;SDS011;38802;50.198;19.796;2024-02-16T09:58:25;4.70;;;4.30;;
52934;SDS011;38802;50.198;19.796;2024-02-16T10:00:54;5.00;;;4.50;;
52934;SDS011;38802;50.198;19.796;2024-02-16T10:03:30;6.40;;;5.00;;
52934;SDS011;38802;50.198;19.796;2024-02-16T10:06:12;4.30;;;3.90;;
52934;SDS011;38802;50.198;19.796;2024-02-16T10:08:47;4.00;;;3.00;;
52934;SDS011;38802;50.198;19.796;2024-02-16T10:11:25;5.40;;;3.90;;
52934;SDS011;38802;50.198;19.796;2024-02-16T10:13:59;5.20;;;4.60;;
52934;SDS011;38802;50.198;19.796;2024-02-16T10:16:29;5.00;;;4.50;;
52934;SDS011;38802;50.198;19.796;2024-02-16T10:19:05;7.00;;;6.10;;
52934;SDS011;38802;50.198;19.796;2024-02-16T10:21:35;6.00;;;5.40;;
52934;SDS011;38802;50.198;19.796;2024-02-16T10:24:06;5.40;;;4.80;;
52934;SDS011;38802;50.198;19.796;2024-02-16T10:26:37;9.80;;;7.20;;
52934;SDS011;38802;50.198;19.796;2024-02-16T10:29:08;8.70;;;6.10;;
52934;SDS011;38802;50.198;19.796;2024-02-16T10:31:37;9.00;;;7.50;;
52934;SDS011;38802;50.198;19.796;2024-02-16T10:34:06;6.00;;;5.40;;
52934;SDS011;38802;50.198;19.796;2024-02-16T10:36:36;5.60;;;2.60;;
52934;SDS011;38802;50.198;19.796;2024-02-16T10:39:06;5.90;;;5.30;;
52934;SDS011;38802;50.198;19.796;2024-02-16T10:41:41;4.60;;;3.80;;
52934;SDS011;38802;50.198;19.796;2024-02-16T10:44:10;2.60;;;2.40;;
52934;SDS011;38802;50.198;19.796;2024-02-16T10:46:38;3.50;;;2.70;;
52934;SDS011;38802;50.198;19.796;2024-02-16T10:49:07;2.80;;;2.20;;
52934;SDS011;38802;50.198;19.796;2024-02-16T10:51:38;2.80;;;2.50;;
52934;SDS011;38802;50.198;19.796;2024-02-16T10:54:13;3.20;;;1.90;;
52934;SDS011;38802;50.198;19.796;2024-02-16T10:56:45;3.00;;;2.40;;
52934;SDS011;38802;50.198;19.796;2024-02-16T10:59:13;3.10;;;2.50;;
52934;SDS011;38802;50.198;19.796;2024-02-16T11:01:42;4.30;;;2.70;;
52934;SDS011;38802;50.198;19.796;2024-02-16T11:04:15;3.80;;;2.70;;
52934;SDS011;38802;50.198;19.796;2024-02-16T11:06:49;4.00;;;3.60;;
52934;SDS011;38802;50.198;19.796;2024-02-16T11:09:34;4.70;;;2.70;;
52934;SDS011;38802;50.198;19.796;2024-02-16T11:12:05;4.40;;;2.50;;
52934;SDS011;38802;50.198;19.796;2024-02-16T11:14:46;3.40;;;2.70;;
52934;SDS011;38802;50.198;19.796;2024-02-16T11:17:19;4.60;;;3.10;;
52934;SDS011;38802;50.198;19.796;2024-02-16T11:19:50;5.90;;;3.90;;
52934;SDS011;38802;50.198;19.796;2024-02-16T11:22:19;4.30;;;3.50;;
52934;SDS011;38802;50.198;19.796;2024-02-16T11:24:49;6.30;;;3.90;;
52934;SDS011;38802;50.198;19.796;2024-02-16T11:27:22;8.40;;;3.40;;
52934;SDS011;38802;50.198;19.796;2024-02-16T11:29:50;10.20;;;5.10;;
52934;SDS011;38802;50.198;19.796;2024-02-16T11:32:19;4.80;;;3.60;;
52934;SDS011;38802;50.198;19.796;2024-02-16T11:34:48;4.70;;;3.60;;
52934;SDS011;38802;50.198;19.796;2024-02-16T11:37:16;5.10;;;3.30;;
52934;SDS011;38802;50.198;19.796;2024-02-16T11:39:45;14.70;;;4.20;;
52934;SDS011;38802;50.198;19.796;2024-02-16T11:42:18;6.40;;;3.70;;
52934;SDS011;38802;50.198;19.796;2024-02-16T11:44:51;4.70;;;4.20;;
52934;SDS011;38802;50.198;19.796;2024-02-16T11:47:23;6.70;;;4.70;;
52934;SDS011;38802;50.198;19.796;2024-02-16T11:50:01;5.60;;;5.00;;
52934;SDS011;38802;50.198;19.796;2024-02-16T11:52:33;7.70;;;4.80;;
52934;SDS011;38802;50.198;19.796;2024-02-16T11:55:03;9.20;;;4.80;;
52934;SDS011;38802;50.198;19.796;2024-02-16T11:57:33;4.70;;;4.20;;
52934;SDS011;38802;50.198;19.796;2024-02-16T12:00:05;6.00;;;4.70;;
52934;SDS011;38802;50.198;19.796;2024-02-16T12:02:38;6.80;;;5.30;;
52934;SDS011;38802;50.198;19.796;2024-02-16T12:05:06;7.50;;;5.20;;
52934;SDS011;38802;50.198;19.796;2024-02-16T12:07:38;5.40;;;4.90;;
52934;SDS011;38802;50.198;19.796;2024-02-16T12:10:09;6.90;;;5.40;;
52934;SDS011;38802;50.198;19.796;2024-02-16T12:12:39;5.80;;;5.10;;
52934;SDS011;38802;50.198;19.796;2024-02-16T12:15:10;7.90;;;3.80;;
52934;SDS011;38802;50.198;19.796;2024-02-16T12:17:39;5.30;;;4.40;;
52934;SDS011;38802;50.198;19.796;2024-02-16T12:20:13;7.30;;;4.20;;
52934;SDS011;38802;50.198;19.796;2024-02-16T12:22:43;5.10;;;4.60;;
52934;SDS011;38802;50.198;19.796;2024-02-16T12:25:11;4.70;;;4.10;;
52934;SDS011;38802;50.198;19.796;2024-02-16T12:27:40;6.10;;;5.50;;
52934;SDS011;38802;50.198;19.796;2024-02-16T12:30:08;10.90;;;6.60;;
52934;SDS011;38802;50.198;19.796;2024-02-16T12:32:37;9.80;;;7.10;;
52934;SDS011;38802;50.198;19.796;2024-02-16T12:35:05;9.40;;;6.90;;
52934;SDS011;38802;50.198;19.796;2024-02-16T12:37:34;17.00;;;8.40;;
52934;SDS011;38802;50.198;19.796;2024-02-16T12:40:03;9.80;;;6.60;;
52934;SDS011;38802;50.198;19.796;2024-02-16T12:42:34;7.60;;;6.20;;
52934;SDS011;38802;50.198;19.796;2024-02-16T12:45:02;16.60;;;6.10;;
52934;SDS011;38802;50.198;19.796;2024-02-16T12:47:31;7.00;;;6.30;;
52934;SDS011;38802;50.198;19.796;2024-02-16T12:49:59;12.60;;;7.10;;
52934;SDS011;38802;50.198;19.796;2024-02-16T12:52:27;8.30;;;7.00;;
52934;SDS011;38802;50.198;19.796;2024-02-16T12:54:56;15.30;;;9.10;;
52934;SDS011;38802;50.198;19.796;2024-02-16T12:57:27;7.80;;;6.70;;
52934;SDS011;38802;50.198;19.796;2024-02-16T12:59:57;7.20;;;6.20;;
52934;SDS011;38802;50.198;19.796;2024-02-16T13:02:25;7.80;;;5.90;;
52934;SDS011;38802;50.198;19.796;2024-02-16T13:04:53;8.40;;;6.50;;
52934;SDS011;38802;50.198;19.796;2024-02-16T13:07:23;7.30;;;6.10;;
52934;SDS011;38802;50.198;19.796;2024-02-16T13:09:52;13.60;;;8.00;;
52934;SDS011;38802;50.198;19.796;2024-02-16T13:12:21;11.80;;;5.90;;
52934;SDS011;38802;50.198;19.796;2024-02-16T13:14:52;9.10;;;6.40;;
52934;SDS011;38802;50.198;19.796;2024-02-16T13:17:20;6.40;;;5.70;;
52934;SDS011;38802;50.198;19.796;2024-02-16T13:19:48;7.90;;;5.10;;
52934;SDS011;38802;50.198;19.796;2024-02-16T13:22:17;7.30;;;5.30;;
52934;SDS011;38802;50.198;19.796;2024-02-16T13:24:45;7.90;;;6.00;;
52934;SDS011;38802;50.198;19.796;2024-02-16T13:27:14;9.00;;;4.90;;
52934;SDS011;38802;50.198;19.796;2024-02-16T13:29:42;9.50;;;5.10;;
52934;SDS011;38802;50.198;19.796;2024-02-16T13:32:10;7.50;;;5.50;;
52934;SDS011;38802;50.198;19.796;2024-02-16T13:34:39;10.60;;;4.60;;
52934;SDS011;38802;50.198;19.796;2024-02-16T13:37:07;6.00;;;5.10;;
52934;SDS011;38802;50.198;19.796;2024-02-16T13:39:35;6.50;;;5.30;;
52934;SDS011;38802;50.198;19.796;2024-02-16T13:42:03;6.30;;;5.20;;
52934;SDS011;38802;50.198;19.796;2024-02-16T13:44:32;7.20;;;6.40;;
52934;SDS011;38802;50.198;19.796;2024-02-16T13:47:00;8.00;;;5.80;;
52934;SDS011;38802;50.198;19.796;2024-02-16T13:49:28;10.20;;;6.40;;
52934;SDS011;38802;50.198;19.796;2024-02-16T13:52:13;12.90;;;7.80;;
52934;SDS011;38802;50.198;19.796;2024-02-16T13:54:41;8.00;;;6.80;;
52934;SDS011;38802;50.198;19.796;2024-02-16T13:57:09;8.50;;;6.40;;
52934;SDS011;38802;50.198;19.796;2024-02-16T13:59:37;7.90;;;6.30;;
52934;SDS011;38802;50.198;19.796;2024-02-16T14:02:05;9.20;;;6.40;;
52934;SDS011;38802;50.198;19.796;2024-02-16T14:04:35;12.40;;;6.40;;
52934;SDS011;38802;50.198;19.796;2024-02-16T14:07:08;9.70;;;6.70;;
52934;SDS011;38802;50.198;19.796;2024-02-16T14:09:38;12.20;;;7.50;;
52934;SDS011;38802;50.198;19.796;2024-02-16T14:12:07;11.50;;;7.70;;
52934;SDS011;38802;50.198;19.796;2024-02-16T14:14:35;11.90;;;7.50;;
52934;SDS011;38802;50.198;19.796;2024-02-16T14:17:05;13.10;;;7.80;;
52934;SDS011;38802;50.198;19.796;2024-02-16T14:19:33;13.90;;;10.20;;
52934;SDS011;38802;50.198;19.796;2024-02-16T14:22:05;11.40;;;8.30;;
52934;SDS011;38802;50.198;19.796;2024-02-16T14:24:35;15.60;;;9.10;;
52934;SDS011;38802;50.198;19.796;2024-02-16T14:27:03;15.40;;;9.30;;
52934;SDS011;38802;50.198;19.796;2024-02-16T14:29:32;19.60;;;12.00;;
52934;SDS011;38802;50.198;19.796;2024-02-16T14:32:01;24.60;;;13.90;;
52934;SDS011;38802;50.198;19.796;2024-02-16T14:34:29;20.60;;;11.50;;